Terminal Aerodrome Forecast
Issued by NWS

Home | Current Version | Previous Version | Text Only | Print | Product List | Glossary Off
Versions: 1 2 3 4 5 6 7 8 9 10 11 12 13 14 15 16 17 18 19 20 21 22 23 24

317
FTUS43 KABR 260101 AAA
TAFMBG
TAF AMD
KMBG 260101Z 2601/2624 11011KT P6SM BKN130
     FM260800 12006KT P6SM OVC015
     FM261100 11004KT 4SM BR OVC008
     FM261600 VRB03KT P6SM OVC015=

USA.gov is the U.S. government's official web portal to all federal, state and local government web resources and services.